createdAt,value
2018-09-27T00:00:04.123Z,67.30
2018-09-27T00:02:32.555Z,66.90
2018-09-27T00:05:01.328Z,67.10
2018-09-27T00:07:29.764Z,66.70
2018-09-27T00:09:57.909Z,65.80
2018-09-27T00:12:26.372Z,66.50
2018-09-27T00:14:54.767Z,67.50
2018-09-27T00:17:23.550Z,66.50
2018-09-27T00:19:51.908Z,68.00
2018-09-27T00:22:20.544Z,67.50
2018-09-27T00:24:49.092Z,67.20
2018-09-27T00:27:17.615Z,66.90
2018-09-27T00:29:46.019Z,67.00
2018-09-27T00:32:14.391Z,67.50
2018-09-27T00:34:42.768Z,66.50
2018-09-27T00:37:11.223Z,67.50
2018-09-27T00:39:39.837Z,67.30
2018-09-27T00:42:08.271Z,67.40
2018-09-27T00:44:36.860Z,66.50
2018-09-27T00:47:05.383Z,66.10
2018-09-27T00:49:34.167Z,66.30
2018-09-27T00:52:02.705Z,66.00
2018-09-27T00:54:31.236Z,66.60
2018-09-27T00:56:59.943Z,67.00
2018-09-27T00:59:28.530Z,67.00
2018-09-27T01:01:57.105Z,66.70
2018-09-27T01:04:25.917Z,67.10
2018-09-27T01:06:54.514Z,67.40
2018-09-27T01:09:23.055Z,67.80
2018-09-27T01:11:51.558Z,66.90
2018-09-27T01:14:20.240Z,67.70
2018-09-27T01:16:48.839Z,65.90
2018-09-27T01:19:17.526Z,67.40
2018-09-27T01:21:46.072Z,66.80
2018-09-27T01:24:14.732Z,66.70
2018-09-27T01:26:43.235Z,66.60
2018-09-27T01:29:12.016Z,66.80
2018-09-27T01:31:40.578Z,66.50
2018-09-27T01:34:09.168Z,67.10
2018-09-27T01:36:37.710Z,66.10
2018-09-27T01:39:07.973Z,66.90
2018-09-27T01:41:36.504Z,66.50
2018-09-27T01:44:05.068Z,66.60
2018-09-27T01:46:33.845Z,66.80
2018-09-27T01:49:02.411Z,67.80
2018-09-27T01:51:30.938Z,66.80
2018-09-27T01:53:59.465Z,66.90
2018-09-27T01:56:27.996Z,66.70
2018-09-27T01:58:56.646Z,66.30
2018-09-27T02:01:25.172Z,66.20
2018-09-27T02:03:53.690Z,66.20
2018-09-27T02:06:22.325Z,66.60
2018-09-27T02:08:50.822Z,66.50
2018-09-27T02:11:19.365Z,67.10
2018-09-27T02:13:47.890Z,66.40
2018-09-27T02:16:16.392Z,67.10
2018-09-27T02:18:44.902Z,66.50
2018-09-27T02:21:13.668Z,66.20
2018-09-27T02:23:42.266Z,66.40
2018-09-27T02:26:10.877Z,66.40
2018-09-27T02:28:39.725Z,67.40
2018-09-27T02:31:08.541Z,67.30
2018-09-27T02:33:37.125Z,67.20
2018-09-27T02:36:05.737Z,68.10
2018-09-27T02:38:34.492Z,66.80
2018-09-27T02:41:03.125Z,67.20
2018-09-27T02:43:31.880Z,66.80
2018-09-27T02:46:00.444Z,66.50
2018-09-27T02:48:28.964Z,66.50
2018-09-27T02:50:57.552Z,67.30
2018-09-27T02:53:26.047Z,67.10
2018-09-27T02:55:54.762Z,67.10
2018-09-27T02:58:23.618Z,67.60
2018-09-27T03:00:52.182Z,68.30
2018-09-27T03:03:20.998Z,67.70
2018-09-27T03:05:49.506Z,67.20
2018-09-27T03:08:17.986Z,67.40
2018-09-27T03:10:46.187Z,68.60
2018-09-27T03:13:14.937Z,68.00
2018-09-27T03:15:43.407Z,67.70
2018-09-27T03:18:12.332Z,68.80
2018-09-27T03:20:41.039Z,67.40
2018-09-27T03:23:09.642Z,68.40
2018-09-27T03:25:37.866Z,68.20
2018-09-27T03:28:06.414Z,67.90
2018-09-27T03:30:34.938Z,68.80
2018-09-27T03:33:03.497Z,68.00
2018-09-27T03:35:32.210Z,68.20
2018-09-27T03:38:01.127Z,68.20
2018-09-27T03:40:29.935Z,68.10
2018-09-27T03:42:58.544Z,68.60
2018-09-27T03:45:27.102Z,67.60
2018-09-27T03:47:55.710Z,68.50
2018-09-27T03:50:30.857Z,68.60
2018-09-27T03:52:59.726Z,68.60
2018-09-27T03:55:28.253Z,68.40
2018-09-27T03:57:56.826Z,68.70
2018-09-27T04:00:25.688Z,68.20
2018-09-27T04:02:54.438Z,68.40
2018-09-27T04:05:30.035Z,68.60
2018-09-27T04:07:59.655Z,68.40
2018-09-27T04:10:28.213Z,69.00
2018-09-27T04:12:57.001Z,68.20
2018-09-27T04:15:25.694Z,69.10
2018-09-27T04:17:54.188Z,68.60
2018-09-27T04:20:22.694Z,68.50
2018-09-27T04:22:51.302Z,68.70
2018-09-27T04:25:19.834Z,68.50
2018-09-27T04:27:48.519Z,68.80
2018-09-27T04:30:17.252Z,68.80
2018-09-27T04:32:46.008Z,68.90
2018-09-27T04:35:14.557Z,69.90
2018-09-27T04:37:43.232Z,69.90
2018-09-27T04:40:11.741Z,69.70
2018-09-27T04:42:40.551Z,69.30
2018-09-27T04:45:09.179Z,69.00
2018-09-27T04:47:37.670Z,70.40
2018-09-27T04:50:06.348Z,69.60
2018-09-27T04:52:34.907Z,70.00
2018-09-27T04:55:03.815Z,69.30
2018-09-27T04:57:32.696Z,68.60
2018-09-27T05:00:01.262Z,69.00
2018-09-27T05:02:31.247Z,68.80
2018-09-27T05:05:00.196Z,68.70
2018-09-27T05:07:28.471Z,69.40
2018-09-27T05:09:57.062Z,69.70
2018-09-27T05:12:25.861Z,70.10
2018-09-27T05:14:54.532Z,70.00
2018-09-27T05:17:23.100Z,70.10
2018-09-27T05:19:51.733Z,70.20
2018-09-27T05:22:20.732Z,69.90
2018-09-27T05:24:49.329Z,69.70
2018-09-27T05:27:18.303Z,69.60
2018-09-27T05:29:47.109Z,70.20
2018-09-27T05:32:15.593Z,69.40
2018-09-27T05:34:44.279Z,69.40
2018-09-27T05:37:12.899Z,70.00
2018-09-27T05:39:41.597Z,69.20
2018-09-27T05:42:11.043Z,69.30
2018-09-27T05:44:39.752Z,69.60
2018-09-27T05:47:08.479Z,69.50
2018-09-27T05:49:37.092Z,69.60
2018-09-27T05:52:05.860Z,69.90
2018-09-27T05:54:34.505Z,70.60
2018-09-27T05:57:03.847Z,70.90
2018-09-27T05:59:32.501Z,70.90
2018-09-27T06:02:01.211Z,71.00
2018-09-27T06:04:29.779Z,70.70
2018-09-27T06:06:58.510Z,70.20
2018-09-27T06:09:27.404Z,70.50
2018-09-27T06:11:56.344Z,70.40
2018-09-27T06:14:24.899Z,70.00
2018-09-27T06:16:53.645Z,70.70
2018-09-27T06:19:22.211Z,70.50
2018-09-27T06:21:50.920Z,71.20
2018-09-27T06:24:19.518Z,71.30
2018-09-27T06:26:48.162Z,70.60
2018-09-27T06:29:16.781Z,71.00
2018-09-27T06:31:45.478Z,71.00
2018-09-27T06:34:14.271Z,71.60
2018-09-27T06:36:42.833Z,70.50
2018-09-27T06:39:11.549Z,69.80
2018-09-27T06:41:40.305Z,70.20
2018-09-27T06:44:09.013Z,71.00
2018-09-27T06:46:37.558Z,71.00
2018-09-27T06:49:06.318Z,70.50
2018-09-27T06:51:35.122Z,70.80
2018-09-27T06:54:03.779Z,70.00
2018-09-27T06:56:32.595Z,70.60
2018-09-27T06:59:01.349Z,69.80
2018-09-27T07:01:30.173Z,69.90
2018-09-27T07:03:58.730Z,68.80
2018-09-27T07:06:27.276Z,69.40
2018-09-27T07:08:56.327Z,68.00
2018-09-27T07:11:24.924Z,68.90
2018-09-27T07:13:53.497Z,68.60
2018-09-27T07:16:21.980Z,68.30
2018-09-27T07:18:50.662Z,68.40
2018-09-27T07:21:19.165Z,69.00
2018-09-27T07:23:47.682Z,68.40
2018-09-27T07:26:16.271Z,68.60
2018-09-27T07:28:44.798Z,69.00
2018-09-27T07:31:13.415Z,69.00
2018-09-27T07:33:41.929Z,70.00
2018-09-27T07:36:10.618Z,69.50
2018-09-27T07:38:39.195Z,69.40
2018-09-27T07:41:08.051Z,70.90
2018-09-27T07:43:36.600Z,70.50
2018-09-27T07:46:05.184Z,70.70
2018-09-27T07:48:33.733Z,71.40
2018-09-27T07:51:02.300Z,70.20
2018-09-27T07:53:30.849Z,69.90
2018-09-27T07:55:59.152Z,71.10
2018-09-27T07:58:27.840Z,69.20
2018-09-27T08:00:56.410Z,68.30
2018-09-27T08:03:24.995Z,65.80
2018-09-27T08:05:53.551Z,65.00
2018-09-27T08:08:22.088Z,61.70
2018-09-27T08:10:51.156Z,59.60
2018-09-27T08:13:19.682Z,59.90
2018-09-27T08:15:48.331Z,58.60
2018-09-27T08:18:17.198Z,57.70
2018-09-27T08:20:45.865Z,58.50
2018-09-27T08:23:14.457Z,57.30
2018-09-27T08:25:43.064Z,53.70
2018-09-27T08:28:11.583Z,55.40
2018-09-27T08:30:40.789Z,53.80
2018-09-27T08:33:09.866Z,53.70
2018-09-27T08:35:38.757Z,53.60
2018-09-27T08:38:07.300Z,54.00
2018-09-27T08:40:36.052Z,53.60
2018-09-27T08:43:04.773Z,53.30
2018-09-27T08:45:33.648Z,53.90
2018-09-27T08:48:02.441Z,52.90
2018-09-27T08:50:31.123Z,52.40
2018-09-27T08:52:59.767Z,51.80
2018-09-27T08:55:28.184Z,49.60
2018-09-27T08:57:56.858Z,49.60
2018-09-27T09:00:26.118Z,48.90
2018-09-27T09:02:55.068Z,49.40
2018-09-27T09:05:24.364Z,45.50
2018-09-27T09:07:53.150Z,43.80
2018-09-27T09:10:22.611Z,45.20
2018-09-27T09:12:51.403Z,46.70
2018-09-27T09:15:20.919Z,44.10
2018-09-27T09:17:49.859Z,46.30
2018-09-27T09:20:18.607Z,46.80
2018-09-27T09:22:48.280Z,44.10
2018-09-27T09:25:16.696Z,42.00
2018-09-27T09:27:45.602Z,41.20
2018-09-27T09:30:14.580Z,41.60
2018-09-27T09:32:43.565Z,43.10
2018-09-27T09:35:12.517Z,39.40
2018-09-27T09:37:41.243Z,40.30
2018-09-27T09:40:09.801Z,39.60
2018-09-27T09:42:38.524Z,40.20
2018-09-27T09:45:07.461Z,38.90
2018-09-27T09:47:36.105Z,38.80
2018-09-27T09:50:08.841Z,39.50
2018-09-27T09:52:40.157Z,39.90
2018-09-27T09:55:09.908Z,37.40
2018-09-27T09:57:38.969Z,40.00
2018-09-27T10:00:08.421Z,41.00
2018-09-27T10:02:38.258Z,37.90
2018-09-27T10:05:07.218Z,35.80
2018-09-27T10:07:35.832Z,38.70
2018-09-27T10:10:06.128Z,35.60
2018-09-27T10:12:35.193Z,37.40
2018-09-27T10:15:04.672Z,34.50
2018-09-27T10:17:34.104Z,33.30
2018-09-27T10:20:03.799Z,31.80
2018-09-27T10:22:35.706Z,32.60
2018-09-27T10:25:04.410Z,33.60
2018-09-27T10:27:33.363Z,35.80
2018-09-27T10:30:02.118Z,32.20
2018-09-27T10:32:30.936Z,35.00
2018-09-27T10:34:59.969Z,31.10
2018-09-27T10:42:10.600Z,31.80
2018-09-27T10:44:39.429Z,32.00
2018-09-27T10:47:11.612Z,29.90
2018-09-27T10:49:40.648Z,30.30
2018-09-27T10:52:13.809Z,30.80
2018-09-27T10:54:43.624Z,31.00
2018-09-27T10:57:15.489Z,31.20
2018-09-27T10:59:47.754Z,29.90
2018-09-27T11:02:25.914Z,29.50
2018-09-27T11:05:25.558Z,29.20
2018-09-27T11:08:00.894Z,27.30
2018-09-27T11:10:29.775Z,29.80
2018-09-27T11:12:58.744Z,28.00
2018-09-27T11:15:28.953Z,27.10
2018-09-27T11:17:59.191Z,26.50
2018-09-27T11:20:31.383Z,27.30
2018-09-27T11:23:02.874Z,26.00
2018-09-27T11:25:37.092Z,27.00
2018-09-27T11:28:06.510Z,28.20
2018-09-27T11:30:35.677Z,26.60
2018-09-27T11:33:07.629Z,27.00
2018-09-27T11:35:36.605Z,26.40
2018-09-27T11:38:07.307Z,27.60
2018-09-27T11:40:40.571Z,27.80
2018-09-27T11:43:09.329Z,26.30
2018-09-27T11:45:38.032Z,26.40
2018-09-27T11:48:06.740Z,27.00
2018-09-27T11:50:35.304Z,24.60
2018-09-27T11:53:07.076Z,24.10
2018-09-27T11:55:35.746Z,24.80
2018-09-27T11:58:04.776Z,24.60
2018-09-27T12:00:33.602Z,24.40
2018-09-27T12:03:02.297Z,25.00
2018-09-27T12:05:30.943Z,24.80
2018-09-27T12:08:06.379Z,24.50
2018-09-27T12:10:34.962Z,25.40
2018-09-27T12:13:03.570Z,24.80
2018-09-27T12:15:32.185Z,23.90
2018-09-27T12:18:01.016Z,24.20
2018-09-27T12:20:29.780Z,23.50
2018-09-27T12:22:58.491Z,23.00
2018-09-27T12:25:27.210Z,23.30
2018-09-27T12:27:55.806Z,23.30
2018-09-27T12:30:24.538Z,23.20
2018-09-27T12:32:53.733Z,22.70
2018-09-27T12:35:22.434Z,22.00
2018-09-27T12:37:51.106Z,23.10
2018-09-27T12:40:19.707Z,23.80
2018-09-27T12:42:48.376Z,24.20
2018-09-27T12:45:16.962Z,24.00
2018-09-27T12:47:45.702Z,21.10
2018-09-27T12:50:14.588Z,21.00
2018-09-27T12:52:43.371Z,21.60
2018-09-27T12:55:11.866Z,19.90
2018-09-27T12:57:40.736Z,20.60
2018-09-27T13:00:09.607Z,19.70
2018-09-27T13:02:38.368Z,19.70
2018-09-27T13:05:07.052Z,20.30
2018-09-27T13:07:35.733Z,18.90
2018-09-27T13:10:04.622Z,22.00
2018-09-27T13:12:33.294Z,21.10
2018-09-27T13:15:02.023Z,22.40
2018-09-27T13:17:30.761Z,19.20
2018-09-27T13:19:59.433Z,19.70
2018-09-27T13:22:28.325Z,20.40
2018-09-27T13:24:58.078Z,19.50
2018-09-27T13:27:26.708Z,18.40
2018-09-27T13:29:55.569Z,19.80
2018-09-27T13:32:24.297Z,20.90
2018-09-27T13:34:53.131Z,23.50
2018-09-27T13:37:23.021Z,21.40
2018-09-27T13:39:51.685Z,20.60
2018-09-27T13:42:20.211Z,18.20
2018-09-27T13:44:49.483Z,18.90
2018-09-27T13:47:18.063Z,19.60
2018-09-27T13:49:46.627Z,19.80
2018-09-27T13:52:16.180Z,19.60
2018-09-27T13:54:45.001Z,19.40
2018-09-27T13:57:13.736Z,20.20
2018-09-27T13:59:42.318Z,18.10
2018-09-27T14:02:10.948Z,18.80
2018-09-27T14:04:39.866Z,19.40
2018-09-27T14:07:08.818Z,19.30
2018-09-27T14:09:37.472Z,21.50
2018-09-27T14:12:06.277Z,20.80
2018-09-27T14:14:35.781Z,19.20
2018-09-27T14:17:04.867Z,19.10
2018-09-27T14:19:33.483Z,20.40
2018-09-27T14:22:02.076Z,21.80
2018-09-27T14:24:30.996Z,18.50
2018-09-27T14:26:59.699Z,19.30
2018-09-27T14:29:28.343Z,19.40
2018-09-27T14:31:57.298Z,19.50
2018-09-27T14:34:26.042Z,19.50
2018-09-27T14:37:01.634Z,18.50
2018-09-27T14:39:30.287Z,19.70
2018-09-27T14:41:59.084Z,19.40
2018-09-27T14:44:27.861Z,19.90
2018-09-27T14:46:56.448Z,18.70
2018-09-27T14:49:25.271Z,19.10
2018-09-27T14:51:53.609Z,19.70
2018-09-27T14:54:22.358Z,18.20
2018-09-27T14:56:51.154Z,19.50
2018-09-27T14:59:20.150Z,19.60
2018-09-27T15:01:48.885Z,19.90
2018-09-27T15:04:17.513Z,18.90
2018-09-27T15:06:46.324Z,19.60
2018-09-27T15:09:15.683Z,19.20
2018-09-27T15:11:44.235Z,18.50
2018-09-27T15:14:12.876Z,19.00
2018-09-27T15:16:41.612Z,20.60
2018-09-27T15:19:10.303Z,19.90
2018-09-27T15:21:38.603Z,22.20
2018-09-27T15:24:07.265Z,22.60
2018-09-27T15:26:36.342Z,23.30
2018-09-27T15:29:04.966Z,24.90
2018-09-27T15:31:33.615Z,25.00
2018-09-27T15:34:02.636Z,25.00
2018-09-27T15:36:31.776Z,24.80
2018-09-27T15:39:00.646Z,25.70
2018-09-27T15:41:29.783Z,27.00
2018-09-27T15:44:00.842Z,27.80
2018-09-27T15:46:29.446Z,27.30
2018-09-27T15:48:58.483Z,27.60
2018-09-27T15:51:27.386Z,28.20
2018-09-27T15:53:56.009Z,28.70
2018-09-27T15:56:24.885Z,29.00
2018-09-27T15:58:53.685Z,28.80
2018-09-27T16:01:22.483Z,29.20
2018-09-27T16:03:51.141Z,29.40
2018-09-27T16:06:20.207Z,29.20
2018-09-27T16:08:48.780Z,29.00
2018-09-27T16:11:17.534Z,29.40
2018-09-27T16:13:46.204Z,29.50
2018-09-27T16:16:14.808Z,30.10
2018-09-27T16:18:43.386Z,29.60
2018-09-27T16:21:11.982Z,29.90
2018-09-27T16:23:40.671Z,30.00
2018-09-27T16:26:09.539Z,31.00
2018-09-27T16:28:38.458Z,31.60
2018-09-27T16:31:07.235Z,31.00
2018-09-27T16:33:36.484Z,31.10
2018-09-27T16:36:05.274Z,32.70
2018-09-27T16:38:34.645Z,31.90
2018-09-27T16:41:03.867Z,32.50
2018-09-27T16:43:34.413Z,32.80
2018-09-27T16:46:04.067Z,34.10
2018-09-27T16:48:32.853Z,34.80
2018-09-27T16:51:01.510Z,36.30
2018-09-27T16:53:30.281Z,36.60
2018-09-27T16:55:59.250Z,37.90
2018-09-27T16:58:27.962Z,38.90
2018-09-27T17:00:56.566Z,38.50
2018-09-27T17:03:25.283Z,37.50
2018-09-27T17:05:54.144Z,38.40
2018-09-27T17:08:22.916Z,38.80
2018-09-27T17:10:51.550Z,39.30
2018-09-27T17:13:20.144Z,39.30
2018-09-27T17:15:48.762Z,39.20
2018-09-27T17:18:17.383Z,40.10
2018-09-27T17:20:46.075Z,40.10
2018-09-27T17:23:14.727Z,41.00
2018-09-27T17:25:43.381Z,40.70
2018-09-27T17:28:11.977Z,41.40
2018-09-27T17:30:40.797Z,41.70
2018-09-27T17:33:09.513Z,42.40
2018-09-27T17:35:38.095Z,42.20
2018-09-27T17:38:07.172Z,42.90
2018-09-27T17:40:35.663Z,43.50
2018-09-27T17:43:05.593Z,43.50
2018-09-27T17:45:34.319Z,43.40
2018-09-27T17:48:03.739Z,43.10
2018-09-27T17:50:32.671Z,42.90
2018-09-27T17:53:01.604Z,43.80
2018-09-27T17:55:29.900Z,43.50
2018-09-27T17:58:00.535Z,43.80
2018-09-27T18:00:30.022Z,45.50
2018-09-27T18:02:58.887Z,45.80
2018-09-27T18:05:27.638Z,46.50
2018-09-27T18:07:58.206Z,46.50
2018-09-27T18:10:26.889Z,46.70
2018-09-27T18:12:55.655Z,48.20
2018-09-27T18:15:25.737Z,48.80
2018-09-27T18:17:54.447Z,49.80
2018-09-27T18:20:23.779Z,50.10
2018-09-27T18:22:52.750Z,50.50
2018-09-27T18:25:22.737Z,51.80
2018-09-27T18:27:51.765Z,52.30
2018-09-27T18:30:21.993Z,53.00
2018-09-27T18:32:50.958Z,53.00
2018-09-27T18:35:19.852Z,54.20
2018-09-27T18:37:49.261Z,54.30
2018-09-27T18:40:18.231Z,55.30
2018-09-27T18:42:47.033Z,55.10
2018-09-27T18:45:15.686Z,54.40
2018-09-27T18:47:44.369Z,55.10
2018-09-27T18:50:13.465Z,55.20
2018-09-27T18:52:42.179Z,56.00
2018-09-27T18:55:10.805Z,55.70
2018-09-27T18:57:39.501Z,56.50
2018-09-27T19:00:08.967Z,57.40
2018-09-27T19:02:38.149Z,58.60
2018-09-27T19:05:07.005Z,57.90
2018-09-27T19:07:35.909Z,58.20
2018-09-27T19:10:05.362Z,59.00
2018-09-27T19:12:34.182Z,58.40
2018-09-27T19:15:02.992Z,59.60
2018-09-27T19:17:31.661Z,59.40
2018-09-27T19:20:00.646Z,60.10
2018-09-27T19:22:29.443Z,60.00
2018-09-27T19:24:58.056Z,60.40
2018-09-27T19:27:26.687Z,59.60
2018-09-27T19:29:55.574Z,59.60
2018-09-27T19:32:24.592Z,60.90
2018-09-27T19:34:53.275Z,60.30
2018-09-27T19:37:21.547Z,60.70
2018-09-27T19:39:50.324Z,60.00
2018-09-27T19:42:19.366Z,61.00
2018-09-27T19:44:48.687Z,61.80
2018-09-27T19:47:18.755Z,62.20
2018-09-27T19:49:47.747Z,61.80
2018-09-27T19:52:16.679Z,61.50
2018-09-27T19:54:45.131Z,61.90
2018-09-27T19:57:13.839Z,61.60
2018-09-27T19:59:42.481Z,61.20
2018-09-27T20:02:12.142Z,62.50
2018-09-27T20:04:41.018Z,62.40
2018-09-27T20:07:09.761Z,62.90
2018-09-27T20:09:41.383Z,62.50
2018-09-27T20:12:11.261Z,62.90
2018-09-27T20:14:40.123Z,62.90
2018-09-27T20:17:09.167Z,63.10
2018-09-27T20:19:37.987Z,63.10
2018-09-27T20:22:09.811Z,63.10
2018-09-27T20:24:38.484Z,63.00
2018-09-27T20:27:08.507Z,63.00
2018-09-27T20:32:10.624Z,64.30
2018-09-27T20:34:40.121Z,64.30
2018-09-27T20:37:09.435Z,65.00
2018-09-27T20:39:39.267Z,64.70
2018-09-27T20:42:08.016Z,64.60
2018-09-27T20:44:36.600Z,65.70
2018-09-27T20:47:05.260Z,65.40
2018-09-27T20:49:33.795Z,64.90
2018-09-27T20:52:02.433Z,64.50
2018-09-27T20:54:31.575Z,64.70
2018-09-27T20:57:00.359Z,63.70
2018-09-27T20:59:29.138Z,64.30
2018-09-27T21:01:57.776Z,65.00
2018-09-27T21:04:26.505Z,65.00
2018-09-27T21:06:55.446Z,65.00
2018-09-27T21:09:24.104Z,65.90
2018-09-27T21:11:52.726Z,65.10
2018-09-27T21:14:21.349Z,65.30
2018-09-27T21:16:50.093Z,65.80
2018-09-27T21:19:19.892Z,65.20
2018-09-27T21:21:49.259Z,66.00
2018-09-27T21:24:17.893Z,64.80
2018-09-27T21:26:46.787Z,65.60
2018-09-27T21:29:15.623Z,65.00
2018-09-27T21:31:44.802Z,63.90
2018-09-27T21:34:13.431Z,65.40
2018-09-27T21:36:42.176Z,64.70
2018-09-27T21:39:11.046Z,65.90
2018-09-27T21:41:39.631Z,65.30
2018-09-27T21:44:08.406Z,65.00
2018-09-27T21:46:37.059Z,65.20
2018-09-27T21:49:06.027Z,64.60
2018-09-27T21:51:34.724Z,65.30
2018-09-27T21:54:03.403Z,65.10
2018-09-27T21:56:31.974Z,65.40
2018-09-27T21:59:00.557Z,65.90
2018-09-27T22:01:29.184Z,65.10
2018-09-27T22:03:57.867Z,65.40
2018-09-27T22:06:26.745Z,67.30
2018-09-27T22:08:55.710Z,66.50
2018-09-27T22:11:24.543Z,67.10
2018-09-27T22:13:53.135Z,66.50
2018-09-27T22:16:21.710Z,67.30
2018-09-27T22:18:50.387Z,66.90
2018-09-27T22:21:19.127Z,66.80
2018-09-27T22:23:47.836Z,66.50
2018-09-27T22:26:16.496Z,66.40
2018-09-27T22:28:45.053Z,68.00
2018-09-27T22:31:13.770Z,68.50
2018-09-27T22:33:42.446Z,67.60
2018-09-27T22:36:11.329Z,67.70
2018-09-27T22:38:40.210Z,68.10
2018-09-27T22:41:08.766Z,68.00
2018-09-27T22:43:37.344Z,66.70
2018-09-27T22:46:06.188Z,67.50
2018-09-27T22:48:34.850Z,67.40
2018-09-27T22:51:03.582Z,67.60
2018-09-27T22:53:32.157Z,67.20
2018-09-27T22:56:00.901Z,68.80
2018-09-27T22:58:29.490Z,68.20
2018-09-27T23:00:58.162Z,68.10
2018-09-27T23:03:26.889Z,67.60
2018-09-27T23:05:55.433Z,67.20
2018-09-27T23:08:23.993Z,67.60
2018-09-27T23:10:52.576Z,66.60
2018-09-27T23:13:21.376Z,67.20
2018-09-27T23:15:49.983Z,67.00
2018-09-27T23:18:18.703Z,67.60
2018-09-27T23:20:47.299Z,68.80
2018-09-27T23:23:15.987Z,67.50
2018-09-27T23:25:44.575Z,69.00
2018-09-27T23:28:13.321Z,68.50
2018-09-27T23:30:41.852Z,68.90
2018-09-27T23:33:10.591Z,68.90
2018-09-27T23:35:39.162Z,68.60
2018-09-27T23:38:08.065Z,69.80
2018-09-27T23:40:36.679Z,69.20
2018-09-27T23:43:05.284Z,69.50
2018-09-27T23:45:33.904Z,69.40
2018-09-27T23:48:02.493Z,69.50
2018-09-27T23:50:31.056Z,68.30
2018-09-27T23:52:59.909Z,69.50
2018-09-27T23:55:28.586Z,68.80
2018-09-27T23:57:57.401Z,68.90
